Terminal Aerodrome Forecast
Issued by NWS

Home | Current Version | Previous Version | Text Only | Print | Product List | Glossary On
Versions: 1 2 3 4 5 6 7 8 9 10 11 12
000
FTUS45 KABQ 242340
TAFGUP
TAF
KGUP 242340Z 2500/2524 27011KT P6SM SCT250
     FM250200 VRB03KT P6SM SCT250
     FM251900 28007KT P6SM SCT250=

USA.gov is the U.S. government's official web portal to all federal, state and local government web resources and services.